Time;durP1;ratioP1;P1;durP2;ratioP2;P2;SDS_P1;SDS_P2;PMS_P1;PMS_P2;Temp;Humidity;BMP_temperature;BMP_pressure;BME280_temperature;BME280_humidity;BME280_pressure;Samples;Min_cycle;Max_cycle;Signal;HPM_P1;HPM_P2
2022/09/28 00:00:08;;;;;;;1.80;0.60;;;;;;;11.99;68.31;97772.28;345491;28;2086;-69
2022/09/28 00:00:20;;;;;;;1.15;0.35;;;;;;;11.98;68.08;97768.84;344190;28;1248;-69
2022/09/28 00:00:32;;;;;;;0.88;0.30;;;;;;;12.01;68.19;97766.97;343103;28;2119;-69
2022/09/28 00:00:46;;;;;;;0.90;0.30;;;;;;;12.01;68.02;97772.19;344522;28;1416;-70
2022/09/28 00:00:58;;;;;;;1.05;0.30;;;;;;;11.99;67.78;97764.47;342387;28;1032;-69
2022/09/28 00:01:24;;;;;;;0.65;0.40;;;;;;;12.01;68.05;97766.97;342363;28;1981;-69
2022/09/28 00:01:36;;;;;;;0.70;0.30;;;;;;;12.02;68.22;97764.25;343375;28;2053;-69
2022/09/28 00:01:48;;;;;;;0.70;0.30;;;;;;;12.02;68.03;97768.66;344138;28;1940;-69
2022/09/28 00:02:00;;;;;;;0.43;0.30;;;;;;;12.04;67.88;97766.78;343613;28;1422;-69
2022/09/28 00:02:12;;;;;;;0.50;0.30;;;;;;;12.02;67.77;97768.66;342904;28;1606;-69
2022/09/28 00:02:25;;;;;;;1.70;0.40;;;;;;;12.00;68.48;97760.94;343391;28;1207;-69
2022/09/28 00:02:37;;;;;;;1.60;0.40;;;;;;;12.02;68.22;97766.03;342988;28;2041;-69
2022/09/28 00:02:50;;;;;;;0.32;0.30;;;;;;;11.96;67.93;97760.31;344288;28;1932;-69
2022/09/28 00:03:02;;;;;;;0.65;0.32;;;;;;;12.01;67.73;97764.38;343570;28;1107;-69
2022/09/28 00:03:14;;;;;;;0.60;0.30;;;;;;;12.01;68.03;97772.19;343701;28;1114;-69
2022/09/28 00:03:26;;;;;;;0.55;0.40;;;;;;;12.00;67.94;97755.72;345040;28;1111;-70
2022/09/28 00:03:42;;;;;;;0.30;0.30;;;;;;;12.04;68.11;97761.56;343856;28;1701;-69
2022/09/28 00:03:58;;;;;;;0.50;0.30;;;;;;;12.04;67.90;97762.38;343609;28;1062;-69
2022/09/28 00:04:11;;;;;;;0.50;0.30;;;;;;;12.04;68.13;97758.97;341748;28;3681;-69
2022/09/28 00:04:23;;;;;;;0.45;0.30;;;;;;;12.07;68.15;97756.13;343522;28;2679;-69
2022/09/28 00:04:35;;;;;;;1.20;0.40;;;;;;;12.06;68.00;97759.69;343461;28;1967;-69
2022/09/28 00:04:47;;;;;;;1.30;0.40;;;;;;;12.06;67.96;97760.50;344577;28;1922;-69
2022/09/28 00:04:59;;;;;;;0.57;0.38;;;;;;;12.07;67.71;97758.72;345316;28;1811;-69
2022/09/28 00:05:11;;;;;;;0.40;0.30;;;;;;;12.06;67.75;97754.47;344857;28;1059;-69
2022/09/28 00:05:27;;;;;;;0.40;0.20;;;;;;;12.06;67.54;97754.47;345224;28;1403;-69
2022/09/28 00:05:39;;;;;;;0.40;0.30;;;;;;;12.00;67.75;97755.72;344779;28;2161;-69
2022/09/28 00:05:51;;;;;;;0.35;0.30;;;;;;;12.01;67.83;97759.97;344106;28;1730;-69
2022/09/28 00:06:06;;;;;;;0.52;0.30;;;;;;;12.01;67.49;97761.75;343790;28;1149;-69
2022/09/28 00:06:21;;;;;;;0.50;0.30;;;;;;;12.01;67.74;97756.56;343482;28;1736;-69
2022/09/28 00:06:33;;;;;;;0.40;0.30;;;;;;;12.02;67.84;97753.03;343553;28;1570;-69
2022/09/28 00:06:49;;;;;;;0.50;0.30;;;;;;;12.04;67.95;97761.56;345048;28;1173;-69
2022/09/28 00:07:01;;;;;;;0.28;0.28;;;;;;;12.05;68.29;97752.78;342282;28;1024;-69
2022/09/28 00:07:12;;;;;;;0.40;0.30;;;;;;;12.06;68.10;97759.69;342487;28;1997;-69
2022/09/28 00:07:24;;;;;;;0.45;0.30;;;;;;;12.07;68.35;97751.75;343479;28;1236;-69
2022/09/28 00:07:37;;;;;;;0.35;0.30;;;;;;;12.07;68.39;97751.75;343335;28;2018;-69
2022/09/28 00:07:49;;;;;;;0.40;0.30;;;;;;;12.10;68.27;97750.72;343490;28;1840;-69
2022/09/28 00:08:01;;;;;;;0.30;0.30;;;;;;;12.10;68.46;97753.31;344994;28;1150;-68
2022/09/28 00:08:13;;;;;;;0.22;0.22;;;;;;;12.07;68.41;97749.13;345065;28;1289;-69
2022/09/28 00:08:25;;;;;;;0.28;0.28;;;;;;;12.11;68.42;97747.16;344076;28;1296;-69
2022/09/28 00:08:38;;;;;;;0.30;0.28;;;;;;;12.11;67.72;97755.84;344031;28;1960;-69
2022/09/28 00:08:50;;;;;;;0.45;0.30;;;;;;;12.11;67.72;97747.16;344772;28;1839;-69
2022/09/28 00:09:03;;;;;;;0.60;0.30;;;;;;;12.04;67.26;97751.97;344925;28;1325;-69
2022/09/28 00:09:16;;;;;;;0.40;0.30;;;;;;;12.05;66.92;97755.41;344244;28;2130;-69
2022/09/28 00:09:28;;;;;;;0.30;0.30;;;;;;;12.05;67.01;97752.78;343670;28;1163;-69
2022/09/28 00:09:40;;;;;;;0.57;0.25;;;;;;;12.03;66.85;97750.28;343979;28;1005;-70
2022/09/28 00:09:52;;;;;;;0.52;0.30;;;;;;;12.03;67.14;97749.47;343628;28;1956;-69
2022/09/28 00:10:04;;;;;;;0.45;0.30;;;;;;;12.01;67.25;97746.13;342136;28;1060;-69
2022/09/28 00:10:16;;;;;;;0.40;0.30;;;;;;;12.03;67.60;97741.66;342009;28;1390;-69
2022/09/28 00:10:28;;;;;;;0.30;0.28;;;;;;;12.02;67.50;97745.22;343634;28;1108;-70
2022/09/28 00:10:42;;;;;;;0.75;0.30;;;;;;;12.04;67.44;97745.94;342029;28;2117;-69
2022/09/28 00:10:55;;;;;;;0.95;0.30;;;;;;;12.03;67.85;97750.28;343726;28;1328;-69
2022/09/28 00:11:11;;;;;;;0.90;0.30;;;;;;;12.02;68.00;97750.41;343584;28;1069;-69
2022/09/28 00:11:26;;;;;;;1.23;0.32;;;;;;;12.02;67.93;97748.63;343367;28;1224;-69
2022/09/28 00:11:38;;;;;;;1.38;0.40;;;;;;;12.02;67.52;97747.81;343291;28;1925;-68
2022/09/28 00:11:52;;;;;;;0.82;0.38;;;;;;;12.01;68.03;97749.56;344166;28;1843;-68
2022/09/28 00:12:05;;;;;;;1.23;0.43;;;;;;;12.02;68.11;97742.59;342569;28;2023;-69
2022/09/28 00:12:17;;;;;;;0.98;0.40;;;;;;;12.02;67.89;97743.44;342239;28;1616;-69
2022/09/28 00:12:30;;;;;;;0.77;0.40;;;;;;;12.03;68.01;97744.25;341056;29;1082;-69
2022/09/28 00:12:42;;;;;;;0.63;0.40;;;;;;;12.02;68.47;97745.22;340983;28;1592;-69
2022/09/28 00:12:54;;;;;;;0.80;0.40;;;;;;;11.99;68.38;97744.50;341251;29;977;-70
2022/09/28 00:13:07;;;;;;;0.80;0.30;;;;;;;11.99;68.49;97744.50;341270;29;1118;-69
2022/09/28 00:13:18;;;;;;;0.60;0.30;;;;;;;11.99;68.66;97741.03;341442;28;1539;-69
2022/09/28 00:13:32;;;;;;;0.43;0.30;;;;;;;11.97;69.08;97746.38;342161;28;1256;-70
2022/09/28 00:13:47;;;;;;;0.38;0.30;;;;;;;11.98;68.80;97742.81;340739;29;1235;-69
2022/09/28 00:14:02;;;;;;;0.63;0.28;;;;;;;11.94;68.82;97741.34;338323;29;970;-69
2022/09/28 00:14:14;;;;;;;0.77;0.30;;;;;;;11.95;69.08;97743.03;339850;29;1242;-68
2022/09/28 00:14:27;;;;;;;0.85;0.35;;;;;;;11.97;68.49;97743.75;342335;28;1246;-69
2022/09/28 00:14:43;;;;;;;0.80;0.40;;;;;;;11.96;69.07;97741.25;341470;28;1886;-69
2022/09/28 00:14:55;;;;;;;0.55;0.30;;;;;;;11.95;68.74;97743.03;341777;28;1011;-69
2022/09/28 00:15:07;;;;;;;0.52;0.30;;;;;;;11.94;68.65;97743.13;341495;28;2038;-69
2022/09/28 00:15:20;;;;;;;0.85;0.30;;;;;;;11.91;68.92;97741.56;342645;28;1236;-68
2022/09/28 00:15:32;;;;;;;0.85;0.30;;;;;;;11.91;68.82;97746.78;343235;28;2191;-69
2022/09/28 00:15:44;;;;;;;0.30;0.30;;;;;;;11.84;68.87;97737.69;342375;28;1804;-69
2022/09/28 00:16:00;;;;;;;0.30;0.30;;;;;;;11.86;68.92;97737.59;342459;28;1153;-70
2022/09/28 00:16:15;;;;;;;0.80;0.38;;;;;;;11.86;68.65;97743.63;343714;28;1031;-69
2022/09/28 00:16:33;;;;;;;1.20;0.32;;;;;;;11.87;69.05;97740.09;342470;28;1255;-69
2022/09/28 00:16:45;;;;;;;1.00;0.20;;;;;;;11.87;68.94;97737.50;343373;28;1653;-69
2022/09/28 00:16:57;;;;;;;0.90;0.30;;;;;;;11.89;69.08;97737.38;343573;28;1271;-69
2022/09/28 00:17:11;;;;;;;0.70;0.30;;;;;;;11.87;69.06;97740.09;343633;28;1385;-69
2022/09/28 00:17:25;;;;;;;0.93;0.30;;;;;;;11.88;69.40;97746.13;343629;28;1309;-69
2022/09/28 00:17:37;;;;;;;1.23;0.30;;;;;;;11.90;69.09;97739.91;343179;28;2115;-69
2022/09/28 00:17:49;;;;;;;0.70;0.20;;;;;;;11.84;69.15;97735.09;344167;28;1774;-69
2022/09/28 00:18:01;;;;;;;1.05;0.38;;;;;;;11.82;69.22;97733.53;344012;28;1137;-69
2022/09/28 00:18:13;;;;;;;0.90;0.40;;;;;;;11.84;69.33;97739.47;343252;28;2017;-68
2022/09/28 00:18:25;;;;;;;0.88;0.38;;;;;;;11.86;69.06;97743.63;343814;28;1717;-69
2022/09/28 00:18:37;;;;;;;0.65;0.30;;;;;;;11.86;68.89;97733.22;343739;28;2038;-69
2022/09/28 00:18:50;;;;;;;0.80;0.30;;;;;;;11.84;69.14;97737.69;344621;28;1838;-70
2022/09/28 00:19:03;;;;;;;0.93;0.32;;;;;;;11.82;69.01;97736.97;345286;28;1062;-69
2022/09/28 00:19:15;;;;;;;0.80;0.30;;;;;;;11.84;68.67;97732.47;344333;28;1889;-69
2022/09/28 00:19:27;;;;;;;0.35;0.25;;;;;;;11.83;68.63;97741.25;344191;28;717;-68
2022/09/28 00:19:43;;;;;;;0.50;0.20;;;;;;;11.82;68.64;97736.97;343873;28;1240;-68
2022/09/28 00:19:56;;;;;;;0.60;0.30;;;;;;;11.82;69.31;97731.75;343923;28;1173;-69
2022/09/28 00:20:09;;;;;;;0.30;0.30;;;;;;;11.81;69.23;97735.28;343939;28;1102;-69
2022/09/28 00:20:21;;;;;;;0.30;0.30;;;;;;;11.79;69.48;97734.53;343642;28;1288;-69
2022/09/28 00:20:33;;;;;;;0.30;0.30;;;;;;;11.79;69.46;97738.00;343089;28;2121;-68
2022/09/28 00:20:45;;;;;;;0.28;0.28;;;;;;;11.78;69.57;97738.09;344501;28;1409;-69
2022/09/28 00:21:11;;;;;;;0.43;0.22;;;;;;;11.73;69.57;97727.16;346278;28;1255;-69
2022/09/28 00:21:27;;;;;;;0.55;0.30;;;;;;;11.73;69.98;97734.97;344357;28;1322;-69
2022/09/28 00:21:40;;;;;;;0.93;0.30;;;;;;;11.75;69.95;97725.28;343547;28;3837;-69
2022/09/28 00:21:52;;;;;;;1.10;0.30;;;;;;;11.75;69.66;97731.34;344385;28;1874;-69
2022/09/28 00:22:05;;;;;;;0.47;0.20;;;;;;;11.77;69.79;97720.81;344382;28;1676;-68
2022/09/28 00:22:17;;;;;;;0.20;0.20;;;;;;;11.73;69.98;97724.56;344682;28;1770;-68
2022/09/28 00:22:29;;;;;;;0.70;0.20;;;;;;;11.72;69.83;97730.72;345086;28;1040;-69
2022/09/28 00:22:41;;;;;;;0.70;0.30;;;;;;;11.68;70.32;97729.25;345003;28;1094;-68
2022/09/28 00:22:53;;;;;;;0.63;0.30;;;;;;;11.68;70.08;97726.66;343464;28;1253;-68
2022/09/28 00:23:04;;;;;;;0.70;0.30;;;;;;;11.70;70.07;97727.38;342388;28;1252;-69
2022/09/28 00:23:16;;;;;;;0.75;0.30;;;;;;;11.70;70.10;97727.38;342464;28;1338;-68
2022/09/28 00:23:28;;;;;;;1.10;0.30;;;;;;;11.67;70.43;97728.44;344014;28;948;-69
2022/09/28 00:24:16;;;;;;;1.95;0.30;;;;;;;11.70;70.14;97727.38;345055;28;1058;-69
2022/09/28 00:24:29;;;;;;;0.63;0.30;;;;;;;11.71;70.27;97729.88;342465;28;2054;-68
2022/09/28 00:24:41;;;;;;;0.50;0.30;;;;;;;11.72;70.05;97730.72;343436;28;1754;-68
2022/09/28 00:24:53;;;;;;;0.82;0.20;;;;;;;11.73;70.02;97727.16;343603;28;1684;-69
2022/09/28 00:25:06;;;;;;;0.80;0.20;;;;;;;11.75;70.40;97733.94;342663;28;1102;-69
2022/09/28 00:25:20;;;;;;;0.85;0.28;;;;;;;11.76;70.74;97726.97;342766;28;1285;-69
2022/09/28 00:25:32;;;;;;;0.80;0.30;;;;;;;11.76;70.74;97733.00;343815;28;1820;-69
2022/09/28 00:25:44;;;;;;;0.80;0.30;;;;;;;11.78;70.63;97725.09;343894;28;1636;-69
2022/09/28 00:26:03;;;;;;;0.82;0.35;;;;;;;11.77;70.46;97733.81;344895;28;1153;-68
2022/09/28 00:26:15;;;;;;;1.35;0.70;;;;;;;11.78;70.74;97732.91;343918;28;1086;-69
2022/09/28 00:26:29;;;;;;;1.25;0.70;;;;;;;11.75;70.95;97730.50;342719;28;1007;-69
2022/09/28 00:26:45;;;;;;;0.82;0.40;;;;;;;11.77;71.20;97733.81;343608;28;1886;-69
2022/09/28 00:27:00;;;;;;;0.93;0.30;;;;;;;11.77;70.94;97723.41;343711;28;1111;-68
2022/09/28 00:27:12;;;;;;;1.10;0.30;;;;;;;11.78;70.83;97723.31;343949;28;1408;-68
2022/09/28 00:27:24;;;;;;;0.98;0.32;;;;;;;11.79;70.54;97726.75;344661;28;1222;-68
2022/09/28 00:27:36;;;;;;;0.73;0.40;;;;;;;11.79;70.68;97731.94;344790;28;1727;-69
2022/09/28 00:27:50;;;;;;;0.45;0.38;;;;;;;11.82;70.59;97730.94;345230;28;1719;-69
2022/09/28 00:28:02;;;;;;;0.45;0.30;;;;;;;11.80;70.61;97733.63;346434;28;1242;-69
2022/09/28 00:28:14;;;;;;;0.50;0.40;;;;;;;11.80;70.49;97725.81;346441;28;1760;-69
2022/09/28 00:28:26;;;;;;;0.63;0.40;;;;;;;11.80;70.32;97728.41;344896;28;1131;-69
2022/09/28 00:28:38;;;;;;;1.65;0.40;;;;;;;11.80;70.04;97728.41;344938;28;1183;-68
2022/09/28 00:28:54;;;;;;;1.70;0.40;;;;;;;11.80;69.86;97729.25;345053;28;987;-69
2022/09/28 00:29:11;;;;;;;0.65;0.30;;;;;;;11.73;69.85;97734.97;343742;28;1906;-69
2022/09/28 00:29:27;;;;;;;1.00;0.30;;;;;;;11.69;69.57;97733.50;344582;28;1649;-68
2022/09/28 00:29:42;;;;;;;0.55;0.30;;;;;;;11.70;69.44;97732.59;344388;28;1651;-69
2022/09/28 00:29:54;;;;;;;1.00;0.30;;;;;;;11.70;69.92;97727.38;344314;28;1123;-69
2022/09/28 00:30:07;;;;;;;1.10;0.30;;;;;;;11.69;70.04;97730.91;343508;28;1750;-68
2022/09/28 00:30:19;;;;;;;0.75;0.30;;;;;;;11.71;70.04;97729.03;343825;28;1132;-69
2022/09/28 00:30:31;;;;;;;1.30;0.30;;;;;;;11.72;70.15;97728.13;344127;28;996;-69
2022/09/28 00:30:43;;;;;;;1.77;0.30;;;;;;;11.72;70.41;97730.72;343773;28;1464;-68
2022/09/28 00:30:55;;;;;;;0.88;0.30;;;;;;;11.72;70.38;97725.50;343832;28;1102;-68
2022/09/28 00:31:07;;;;;;;0.88;0.35;;;;;;;11.72;70.69;97730.72;343708;28;1091;-68
2022/09/28 00:31:19;;;;;;;0.98;0.40;;;;;;;11.72;70.88;97730.72;343738;28;1351;-69
2022/09/28 00:31:33;;;;;;;2.20;0.35;;;;;;;11.73;71.11;97728.00;343830;28;1777;-69
2022/09/28 00:31:45;;;;;;;1.80;0.40;;;;;;;11.73;71.64;97732.38;343968;28;1585;-69
2022/09/28 00:32:06;;;;;;;1.20;0.35;;;;;;;11.65;70.35;97729.44;343010;28;1691;-70
2022/09/28 00:32:20;;;;;;;1.30;0.30;;;;;;;11.63;70.45;97731.31;343219;28;1319;-69
2022/09/28 00:32:32;;;;;;;0.70;0.30;;;;;;;11.64;70.13;97725.19;342257;28;1602;-68
2022/09/28 00:32:44;;;;;;;0.65;0.30;;;;;;;11.62;70.04;97727.06;343936;28;1625;-69
2022/09/28 00:32:56;;;;;;;0.57;0.35;;;;;;;11.62;70.30;97729.69;342995;28;1335;-68
2022/09/28 00:33:08;;;;;;;0.50;0.30;;;;;;;11.66;70.38;97723.31;344152;28;769;-69
2022/09/28 00:33:20;;;;;;;0.95;0.35;;;;;;;11.65;70.29;97725.09;343032;28;1191;-68
2022/09/28 00:33:32;;;;;;;1.02;0.30;;;;;;;11.66;70.44;97726.75;342360;28;1053;-68
2022/09/28 00:33:44;;;;;;;1.88;0.28;;;;;;;11.54;70.39;97723.22;342393;28;1785;-69
2022/09/28 00:33:56;;;;;;;1.45;0.30;;;;;;;11.51;70.36;97726.03;341990;28;1295;-70
2022/09/28 00:34:09;;;;;;;0.85;0.32;;;;;;;11.50;70.81;97720.91;342280;28;1075;-70
2022/09/28 00:34:21;;;;;;;1.10;0.40;;;;;;;11.49;70.53;97717.50;341620;28;1350;-69
2022/09/28 00:34:41;;;;;;;1.13;0.40;;;;;;;11.48;71.04;97718.41;341170;28;1557;-69
2022/09/28 00:34:53;;;;;;;0.80;0.38;;;;;;;11.52;71.04;97716.44;340865;29;1662;-68
2022/09/28 00:35:06;;;;;;;0.68;0.38;;;;;;;11.55;71.57;97717.06;341205;29;1059;-68
2022/09/28 00:35:18;;;;;;;0.75;0.30;;;;;;;11.58;71.43;97716.84;340027;29;1304;-68
2022/09/28 00:35:30;;;;;;;0.88;0.30;;;;;;;11.58;71.67;97714.25;340985;29;1091;-68
2022/09/28 00:35:42;;;;;;;0.63;0.30;;;;;;;11.56;71.86;97715.31;340394;28;1837;-68
2022/09/28 00:36:00;;;;;;;1.20;0.30;;;;;;;11.53;71.97;97711.16;342577;28;2228;-67
2022/09/28 00:36:12;;;;;;;2.67;0.40;;;;;;;11.51;72.62;97713.03;343055;28;1095;-68
2022/09/28 00:36:28;;;;;;;2.20;0.40;;;;;;;11.51;72.58;97715.63;342435;28;1342;-67
2022/09/28 00:36:44;;;;;;;1.40;0.40;;;;;;;11.55;72.24;97714.47;343049;28;1583;-68
2022/09/28 00:36:57;;;;;;;1.67;0.40;;;;;;;11.55;72.47;97706.69;343718;28;1111;-68
2022/09/28 00:37:09;;;;;;;0.90;0.30;;;;;;;11.57;72.29;97699.59;343991;28;1063;-68
2022/09/28 00:37:21;;;;;;;1.55;0.30;;;;;;;11.60;72.56;97706.34;343493;28;1652;-68
2022/09/28 00:37:33;;;;;;;1.77;0.40;;;;;;;11.61;72.39;97713.25;344849;28;1705;-68
2022/09/28 00:37:47;;;;;;;1.83;0.40;;;;;;;11.59;72.60;97705.53;345252;28;1038;-68
2022/09/28 00:38:01;;;;;;;0.50;0.40;;;;;;;11.60;72.14;97701.97;345273;28;1031;-68
2022/09/28 00:38:15;;;;;;;1.05;0.40;;;;;;;11.62;72.32;97703.66;346281;28;1027;-68
2022/09/28 00:38:29;;;;;;;1.75;0.40;;;;;;;11.60;72.57;97704.56;343975;28;1211;-68
2022/09/28 00:38:41;;;;;;;2.53;0.52;;;;;;;11.63;72.63;97705.31;344912;28;1537;-68
2022/09/28 00:38:57;;;;;;;2.30;0.50;;;;;;;11.65;72.63;97701.69;343701;28;1813;-68
2022/09/28 00:39:10;;;;;;;0.52;0.32;;;;;;;11.67;72.63;97706.75;341676;28;2993;-67
2022/09/28 00:39:22;;;;;;;0.55;0.30;;;;;;;11.67;72.57;97704.16;340824;28;1551;-68
2022/09/28 00:39:37;;;;;;;0.77;0.38;;;;;;;11.66;71.89;97699.91;342159;28;1714;-68
2022/09/28 00:39:49;;;;;;;1.30;0.40;;;;;;;11.66;72.03;97702.50;342498;28;1043;-68
2022/09/28 00:40:01;;;;;;;0.90;0.40;;;;;;;11.67;71.86;97701.56;339893;29;1368;-68
2022/09/28 00:40:13;;;;;;;1.30;0.50;;;;;;;11.67;71.38;97699.81;339594;29;1367;-68
2022/09/28 00:40:25;;;;;;;1.00;0.40;;;;;;;11.57;72.06;97710.00;339540;29;1395;-68
2022/09/28 00:40:37;;;;;;;0.57;0.30;;;;;;;11.57;71.96;97702.19;339983;28;1617;-68
2022/09/28 00:40:49;;;;;;;0.38;0.30;;;;;;;11.60;72.10;97701.16;340808;28;1511;-68
2022/09/28 00:41:01;;;;;;;0.50;0.30;;;;;;;11.62;72.33;97704.47;342233;28;1044;-68
2022/09/28 00:41:14;;;;;;;0.75;0.40;;;;;;;11.64;72.33;97699.19;342482;28;1293;-67
2022/09/28 00:41:27;;;;;;;1.13;0.40;;;;;;;11.66;72.39;97702.50;343074;28;1218;-68
2022/09/28 00:41:39;;;;;;;0.77;0.35;;;;;;;11.68;71.94;97698.84;344562;28;1819;-68
2022/09/28 00:41:51;;;;;;;0.28;0.28;;;;;;;11.71;72.32;97706.47;345432;28;1968;-68
2022/09/28 00:42:11;;;;;;;0.60;0.35;;;;;;;11.66;71.85;97694.69;344937;28;1355;-68
2022/09/28 00:42:25;;;;;;;0.55;0.40;;;;;;;11.66;71.43;97705.09;343766;28;1175;-68
2022/09/28 00:42:41;;;;;;;0.30;0.30;;;;;;;11.67;71.51;97696.34;342790;28;1589;-68
2022/09/28 00:42:53;;;;;;;0.30;0.30;;;;;;;11.63;71.11;97697.50;344383;28;1767;-68
2022/09/28 00:43:19;;;;;;;0.35;0.35;;;;;;;11.62;71.34;97698.44;343772;28;1179;-68
2022/09/28 00:43:31;;;;;;;0.40;0.30;;;;;;;11.64;72.06;97696.56;342650;28;1289;-68
2022/09/28 00:43:43;;;;;;;0.43;0.30;;;;;;;11.63;71.63;97700.09;343743;28;1380;-68
2022/09/28 00:44:23;;;;;;;0.40;0.30;;;;;;;11.52;71.86;97693.84;344281;28;1240;-69
2022/09/28 00:44:39;;;;;;;1.08;0.40;;;;;;;11.47;72.64;97695.94;342471;28;1763;-68
2022/09/28 00:44:52;;;;;;;1.00;0.38;;;;;;;11.51;72.91;97701.75;343905;28;1724;-68
2022/09/28 00:45:07;;;;;;;0.80;0.40;;;;;;;11.52;73.11;97695.63;343590;28;1538;-67
2022/09/28 00:45:24;;;;;;;0.88;0.40;;;;;;;11.54;73.34;97696.34;343719;28;1514;-67
2022/09/28 00:45:36;;;;;;;0.40;0.30;;;;;;;11.55;73.43;97693.66;344005;28;1078;-68
2022/09/28 00:46:09;;;;;;;0.30;0.30;;;;;;;11.55;73.07;97691.06;345285;28;1767;-68
2022/09/28 00:46:27;;;;;;;1.10;0.40;;;;;;;11.60;73.24;97694.16;344183;28;1236;-68
2022/09/28 00:46:40;;;;;;;0.80;0.47;;;;;;;11.63;73.06;97689.69;344479;28;1460;-68
2022/09/28 00:46:54;;;;;;;0.50;0.40;;;;;;;11.63;73.30;97679.28;344671;28;1740;-68
2022/09/28 00:47:23;;;;;;;0.65;0.30;;;;;;;11.63;73.35;97689.69;343658;28;1250;-69
2022/09/28 00:47:48;;;;;;;1.00;0.30;;;;;;;11.60;73.63;97691.56;342118;28;1510;-68
2022/09/28 00:48:00;;;;;;;0.75;0.35;;;;;;;11.62;73.73;97688.88;343245;28;1798;-68
2022/09/28 00:48:12;;;;;;;0.80;0.40;;;;;;;11.62;73.54;97690.63;343523;28;1528;-68
2022/09/28 00:48:28;;;;;;;1.13;0.40;;;;;;;11.63;73.49;97685.34;342119;28;1350;-68
2022/09/28 00:48:49;;;;;;;1.02;0.30;;;;;;;11.57;73.69;97686.59;341505;28;1669;-67
2022/09/28 00:49:08;;;;;;;1.10;0.35;;;;;;;11.56;74.05;97684.91;341022;29;1056;-68
2022/09/28 00:49:30;;;;;;;1.02;0.32;;;;;;;11.52;73.76;97680.84;342368;28;1470;-68
2022/09/28 00:49:54;;;;;;;1.80;0.40;;;;;;;11.37;74.09;97684.50;343605;28;1075;-68
2022/09/28 00:50:09;;;;;;;1.13;0.30;;;;;;;11.42;73.86;97682.41;344772;28;1671;-68
2022/09/28 00:50:27;;;;;;;1.48;0.40;;;;;;;11.36;73.66;97688.84;343186;28;1316;-68
2022/09/28 00:50:39;;;;;;;1.40;0.50;;;;;;;11.39;73.87;97693.03;343634;28;2024;-68
2022/09/28 00:50:51;;;;;;;1.35;0.50;;;;;;;11.36;74.09;97691.44;343589;28;1831;-68
2022/09/28 00:51:08;;;;;;;1.00;0.40;;;;;;;11.40;73.85;97692.09;343515;28;1259;-68
2022/09/28 00:51:22;;;;;;;0.85;0.30;;;;;;;11.43;73.59;97689.28;343377;28;1231;-67
2022/09/28 00:51:35;;;;;;;0.50;0.22;;;;;;;11.39;73.67;97687.84;343405;28;1787;-71
2022/09/28 00:51:47;;;;;;;0.90;0.30;;;;;;;11.37;73.77;97689.72;342890;28;1532;-69
2022/09/28 00:52:01;;;;;;;0.85;0.30;;;;;;;11.42;73.71;97682.41;342456;28;1163;-70
2022/09/28 00:52:21;;;;;;;0.60;0.20;;;;;;;11.46;73.52;97683.88;342000;28;1639;-70
2022/09/28 00:52:57;;;;;;;0.77;0.30;;;;;;;11.48;74.20;97676.78;342076;28;1177;-69
2022/09/28 00:53:20;;;;;;;1.75;0.60;;;;;;;11.43;74.53;97683.22;343506;28;1772;-69
2022/09/28 00:53:36;;;;;;;1.42;0.60;;;;;;;11.46;74.43;97676.06;342330;28;1083;-69
2022/09/28 00:53:49;;;;;;;1.55;0.50;;;;;;;11.48;74.22;97682.00;343495;28;1592;-68
2022/09/28 00:54:03;;;;;;;2.70;0.50;;;;;;;11.45;74.30;97677.00;344775;28;1278;-70
2022/09/28 00:54:15;;;;;;;2.20;0.50;;;;;;;11.41;73.91;97680.75;344964;28;1658;-69
2022/09/28 00:54:27;;;;;;;2.10;0.50;;;;;;;11.45;74.53;97677.00;343657;28;1121;-70
2022/09/28 00:54:44;;;;;;;2.40;0.47;;;;;;;11.42;74.21;97677.22;342483;28;896;-69
2022/09/28 00:55:01;;;;;;;3.50;0.40;;;;;;;11.47;73.88;97669.94;342423;28;1598;-70
2022/09/28 00:55:16;;;;;;;2.03;0.32;;;;;;;11.49;74.21;97673.28;341924;28;3593;-70
2022/09/28 00:55:43;;;;;;;1.25;0.40;;;;;;;11.51;74.33;97676.59;343670;28;1364;-68
2022/09/28 00:56:02;;;;;;;0.73;0.40;;;;;;;11.54;73.92;97671.16;343788;28;1335;-69
2022/09/28 00:56:18;;;;;;;1.10;0.38;;;;;;;11.50;73.68;97664.50;343309;28;1055;-68
2022/09/28 00:56:33;;;;;;;1.20;0.38;;;;;;;11.47;73.82;97669.94;342667;28;1680;-69
2022/09/28 00:56:47;;;;;;;0.80;0.40;;;;;;;11.44;74.04;97669.31;345368;28;1702;-69
2022/09/28 00:57:01;;;;;;;1.00;0.40;;;;;;;11.48;74.40;97674.19;343097;28;2047;-71
2022/09/28 00:57:16;;;;;;;0.75;0.40;;;;;;;11.44;74.59;97664.94;343495;28;1263;-68
2022/09/28 00:57:29;;;;;;;0.40;0.30;;;;;;;11.47;74.45;97669.94;343557;28;1108;-68
2022/09/28 00:57:46;;;;;;;0.77;0.40;;;;;;;11.48;74.45;97660.34;343454;28;1650;-68
2022/09/28 00:58:02;;;;;;;1.40;0.50;;;;;;;11.50;74.34;97664.50;343033;28;1988;-70
2022/09/28 00:58:22;;;;;;;0.95;0.40;;;;;;;11.49;74.48;97662.00;342605;28;1409;-68
2022/09/28 00:58:40;;;;;;;1.13;0.57;;;;;;;11.50;73.95;97659.31;343276;28;1509;-71
2022/09/28 00:58:53;;;;;;;1.67;0.47;;;;;;;11.50;74.43;97661.91;342335;28;1934;-69
2022/09/28 00:59:07;;;;;;;1.30;0.40;;;;;;;11.51;74.09;97658.38;343574;28;1292;-69
2022/09/28 00:59:23;;;;;;;0.45;0.38;;;;;;;11.53;74.71;97653.91;343598;28;1561;-69
2022/09/28 00:59:35;;;;;;;0.80;0.35;;;;;;;11.49;74.63;97657.66;343225;28;1543;-69
2022/09/28 00:59:48;;;;;;;1.20;0.40;;;;;;;11.50;74.56;97654.09;344391;28;1652;-68
2022/09/28 01:00:02;;;;;;;2.67;0.40;;;;;;;11.50;74.74;97654.09;344806;28;1253;-68
2022/09/28 01:00:14;;;;;;;2.20;0.40;;;;;;;11.53;74.70;97661.72;344814;28;1603;-68
2022/09/28 01:00:26;;;;;;;3.03;0.40;;;;;;;11.51;74.49;97655.78;344979;28;1131;-67
2022/09/28 01:00:41;;;;;;;1.60;0.30;;;;;;;11.52;74.80;97654.81;343837;28;1584;-69
2022/09/28 01:00:58;;;;;;;0.30;0.30;;;;;;;11.53;74.94;97653.06;345072;28;1846;-69
2022/09/28 01:01:11;;;;;;;0.90;0.35;;;;;;;11.54;75.10;97652.13;344926;28;1194;-68
2022/09/28 01:01:23;;;;;;;0.80;0.40;;;;;;;11.55;75.04;97654.63;345278;28;1198;-69
2022/09/28 01:01:36;;;;;;;0.70;0.38;;;;;;;11.57;75.01;97649.34;344571;28;1729;-72
2022/09/28 01:01:48;;;;;;;0.90;0.40;;;;;;;11.58;75.38;97651.81;345409;28;1875;-68
2022/09/28 01:02:01;;;;;;;2.70;0.40;;;;;;;11.60;74.90;97649.94;344072;28;1604;-69
2022/09/28 01:02:13;;;;;;;3.13;0.47;;;;;;;11.62;75.05;97655.03;343968;28;1777;-70
2022/09/28 01:02:25;;;;;;;2.28;0.47;;;;;;;11.60;74.70;97649.94;343484;28;1562;-70
2022/09/28 01:02:37;;;;;;;1.50;0.40;;;;;;;11.64;74.72;97641.94;344120;28;1651;-70
2022/09/28 01:02:50;;;;;;;0.77;0.28;;;;;;;11.66;75.14;97645.25;342329;28;1258;-70
2022/09/28 01:03:02;;;;;;;0.63;0.40;;;;;;;11.68;75.03;97646.81;343671;28;1167;-68
2022/09/28 01:03:15;;;;;;;0.75;0.40;;;;;;;11.68;75.22;97646.81;343646;28;1059;-68
2022/09/28 01:03:27;;;;;;;0.45;0.30;;;;;;;11.71;75.23;97645.75;342465;28;932;-69
2022/09/28 01:03:44;;;;;;;1.45;0.40;;;;;;;11.73;75.16;97641.28;341921;28;1702;-71
2022/09/28 01:04:01;;;;;;;2.95;0.43;;;;;;;11.74;75.32;97637.75;342505;28;1812;-69
2022/09/28 01:04:13;;;;;;;2.92;0.43;;;;;;;11.78;75.19;97639.19;341674;28;1067;-69
2022/09/28 01:04:25;;;;;;;3.10;0.50;;;;;;;11.78;74.99;97641.78;343541;28;1110;-70
2022/09/28 01:04:41;;;;;;;2.78;0.55;;;;;;;11.78;75.58;97639.19;342914;28;1605;-68
2022/09/28 01:04:54;;;;;;;2.42;0.50;;;;;;;11.80;75.25;97645.13;343140;28;1727;-68
2022/09/28 01:05:09;;;;;;;2.20;0.50;;;;;;;11.82;75.70;97645.03;342232;28;1285;-69
2022/09/28 01:05:23;;;;;;;2.80;0.50;;;;;;;11.84;75.29;97643.97;341510;28;1345;-68
2022/09/28 01:05:36;;;;;;;1.92;0.40;;;;;;;11.84;75.19;97641.38;340943;28;1555;-69
2022/09/28 01:05:50;;;;;;;0.98;0.40;;;;;;;11.83;75.30;97644.94;340997;28;1894;-70
2022/09/28 01:06:05;;;;;;;1.17;0.50;;;;;;;11.83;75.45;97644.94;342040;28;1084;-69
2022/09/28 01:06:22;;;;;;;1.35;0.68;;;;;;;11.85;75.45;97643.03;340866;29;1189;-68
2022/09/28 01:06:37;;;;;;;1.60;0.45;;;;;;;11.86;75.17;97644.69;339579;29;1423;-69
2022/09/28 01:06:50;;;;;;;1.65;0.30;;;;;;;11.89;75.46;97644.53;340719;29;1661;-68
2022/09/28 01:07:02;;;;;;;0.85;0.20;;;;;;;11.89;75.51;97639.31;341254;29;1250;-70
2022/09/28 01:07:15;;;;;;;0.40;0.30;;;;;;;11.89;75.46;97641.91;342624;28;1084;-72
2022/09/28 01:07:28;;;;;;;0.73;0.40;;;;;;;11.85;74.76;97648.25;343632;28;1076;-71
2022/09/28 01:07:42;;;;;;;1.08;0.40;;;;;;;11.87;74.44;97646.38;342159;28;1728;-70
2022/09/28 01:07:56;;;;;;;1.75;0.57;;;;;;;11.84;74.12;97646.56;344348;28;1627;-69
2022/09/28 01:08:10;;;;;;;1.55;0.57;;;;;;;11.82;74.48;97647.63;345142;28;808;-69
2022/09/28 01:08:26;;;;;;;1.23;0.47;;;;;;;11.82;74.73;97643.25;343109;28;1304;-70